Date,TemperatureHighF,TemperatureAvgF,TemperatureLowF,DewpointHighF,DewpointAvgF,DewpointLowF,HumidityHigh,HumidityAvg,HumidityLow,PressureMaxIn,PressureMinIn,WindSpeedMaxMPH,WindSpeedAvgMPH,GustSpeedMaxMPH,PrecipitationSumIn
2013-1-15,35.0,30.7,28.7,26.7,25.5,23.3,89,81,63,30.27,29.99,6,0,6,0.00
2013-1-16,31.4,29.4,27.4,29.3,27.7,25.5,96,93,87,30.23,29.78,2,0,2,0.00
2013-1-17,37.1,28.7,19.8,32.9,22.2,3.7,97,78,49,30.09,29.78,8,1,18,0.11
2013-1-18,19.6,13.7,7.2,7.8,1.3,-5.8,83,58,40,30.39,30.06,9,2,16,0.00
2013-1-19,45.4,29.2,12.2,28.6,21.6,7.7,90,74,52,30.32,29.81,4,0,8,0.03
2013-1-20,44.6,32.9,22.1,33.1,19.7,4.9,90,60,36,29.91,29.48,11,4,27,0.08
2013-1-21,25.8,20.4,15.9,18.2,7.9,0.5,92,60,44,30.04,29.79,7,2,14,0.00
2013-1-22,20.6,15.1,4.4,17.6,9.0,0.1,92,78,44,30.04,29.75,8,2,16,0.00
2013-1-23,8.2,3.2,-5.4,3.2,-8.3,-13.0,83,59,38,30.13,30.02,9,2,14,0.00
2013-1-24,13.1,3.6,-8.4,-7.3,-10.4,-14.1,78,53,36,30.24,30.08,10,3,20,0.00
2013-1-25,17.2,10.2,1.3,7.6,-3.6,-7.2,80,54,36,30.31,30.07,7,2,16,0.00
2013-1-26,18.2,12.6,8.0,7.3,0.7,-7.8,81,60,35,30.23,30.02,8,2,14,0.69
2013-1-27,24.7,15.7,10.2,4.8,0.5,-6.3,71,53,26,30.47,30.21,7,2,13,0.00
2013-1-28,24.3,17.3,8.1,19.1,10.7,-0.3,92,76,39,30.46,30.04,3,0,4,0.00
2013-1-29,33.1,26.2,16.6,30.4,23.6,14.4,96,90,79,30.19,30.04,2,0,4,0.07
2013-1-30,37.3,33.5,31.4,36.8,32.7,30.4,98,97,96,30.12,29.38,3,0,4,0.27
2013-1-31,54.8,39.7,27.7,54.5,31.1,10.0,99,74,46,29.49,28.85,12,3,28,0.99
2013-2-1,27.9,23.4,17.6,19.8,11.6,4.0,88,61,48,30.05,29.49,8,3,16,0.00
2013-2-2,25.5,19.9,12.6,14.9,8.5,3.8,75,61,46,30.19,30.01,6,1,12,0.00
2013-2-3,27.9,22.2,14.1,17.2,15.0,10.9,90,74,58,30.02,29.71,3,0,5,0.00
2013-2-4,26.0,21.1,16.8,16.9,9.1,2.5,86,61,40,29.88,29.69,7,2,13,0.00
2013-2-5,26.5,18.4,7.3,14.1,7.7,3.2,84,64,42,30.01,29.86,6,1,12,0.00
2013-2-6,21.4,21.2,20.2,18.2,17.5,13.7,88,86,74,29.96,29.91,0,0,0,0.00
2013-2-7,23.0,20.2,10.8,18.1,6.8,-2.6,87,59,34,30.53,29.96,5,1,10,0.00
2013-2-8,20.9,17.6,16.0,14.6,11.4,1.8,91,78,43,30.49,29.82,5,1,9,0.00
2013-2-9,19.6,15.6,12.1,17.8,11.0,4.0,93,82,67,30.24,29.76,9,3,20,0.00
2013-2-10,32.0,18.2,9.2,14.0,5.8,0.8,81,60,29,30.44,30.24,8,2,13,0.00
2013-2-11,28.0,19.6,9.2,27.0,16.8,4.7,96,89,74,30.34,29.61,3,0,4,0.00
2013-2-12,41.3,36.2,27.9,31.9,29.2,26.7,97,76,62,29.82,29.58,9,2,15,0.40
2013-2-13,39.0,32.1,26.5,28.2,23.7,21.2,84,72,50,29.83,29.72,6,1,10,0.05
2013-2-14,38.4,30.4,25.2,26.1,22.6,20.7,87,74,50,29.96,29.69,6,0,12,0.01
2013-2-15,45.6,31.0,19.4,31.3,24.7,17.2,92,78,53,29.96,29.86,5,0,12,0.07
2013-2-16,36.9,31.7,24.3,28.1,21.7,6.5,90,67,46,29.95,29.75,5,2,12,0.00
2013-2-17,24.2,18.3,13.4,8.6,5.0,1.7,68,56,45,29.76,29.44,13,5,23,0.01
2013-2-18,26.1,18.7,11.5,7.1,1.3,-2.9,64,48,29,30.11,29.68,11,4,21,0.00
2013-2-19,38.3,26.8,13.6,32.3,17.3,1.1,96,69,40,30.15,29.56,3,0,5,0.14
2013-2-20,34.2,29.3,24.0,33.4,21.2,15.2,97,72,57,29.71,29.51,9,4,20,0.01
2013-2-21,24.5,22.4,20.0,16.9,14.3,10.5,79,71,66,29.80,29.70,8,4,16,0.00
2013-2-24,34.6,32.6,31.4,32.8,31.5,30.4,97,96,92,29.88,29.75,0,0,1,0.08
2013-2-25,36.7,32.4,27.5,33.7,30.9,26.4,97,94,84,30.21,29.88,4,0,7,0.24
2013-2-26,39.4,33.9,30.5,34.6,31.6,29.2,97,92,79,30.32,30.17,3,0,5,0.22
2013-2-27,35.3,32.7,30.8,34.5,31.7,29.8,97,96,93,30.17,29.63,4,0,8,0.00
2013-2-28,40.1,34.2,31.2,38.1,33.2,30.4,98,96,91,29.63,29.53,2,0,4,0.65
2013-3-1,37.7,34.8,32.8,33.0,29.9,27.0,98,83,69,29.68,29.53,7,2,12,0.16
2013-3-2,37.6,33.5,29.3,29.2,26.8,24.6,86,76,64,29.67,29.62,7,2,12,0.09
2013-3-3,36.4,31.2,26.9,28.6,25.6,22.9,88,80,71,29.65,29.57,7,2,12,0.05
2013-3-4,34.3,30.2,27.2,26.2,23.3,20.9,87,76,66,29.78,29.58,9,4,16,0.00
2013-3-5,41.7,33.1,26.7,31.6,26.7,21.0,93,78,59,30.07,29.78,6,1,13,0.04
2013-3-6,37.7,34.3,31.3,32.5,29.8,26.4,96,84,69,30.17,30.06,7,2,12,0.02
2013-3-7,34.4,31.8,30.2,30.6,28.2,24.6,96,87,72,30.15,30.06,6,1,12,0.03
2013-3-8,39.2,33.3,30.1,34.2,30.0,26.4,96,88,68,30.21,30.00,4,1,7,0.30
2013-3-9,31.5,29.8,26.2,27.4,25.5,23.6,90,84,81,30.35,30.18,3,1,6,0.17
2013-3-10,46.5,33.8,21.1,31.2,26.5,19.4,94,77,48,30.40,30.26,3,0,5,0.00
2013-3-11,50.6,38.8,31.4,33.9,31.4,29.3,93,77,44,30.29,30.09,3,0,4,0.00
2013-3-12,44.5,39.3,33.1,44.0,38.3,30.8,98,96,90,30.10,29.68,4,0,7,0.82
2013-3-13,44.3,38.0,28.9,39.5,31.2,24.4,98,78,47,29.77,29.70,6,2,12,0.00
2013-3-14,32.4,27.6,18.9,26.3,18.0,7.9,92,68,48,29.83,29.68,9,3,15,0.00
2013-3-15,36.4,25.6,15.9,29.6,15.5,5.7,94,67,36,29.85,29.59,8,2,15,0.00
2013-3-16,33.4,28.3,22.7,23.7,15.3,10.0,80,59,38,29.88,29.68,6,2,10,0.00
2013-3-17,31.2,24.3,18.1,16.3,10.2,2.6,84,57,34,30.32,29.88,10,2,15,0.00
2013-3-18,36.7,23.7,7.8,22.8,7.3,1.3,82,53,23,30.45,30.22,3,0,5,0.00
2013-3-19,32.1,28.7,24.6,30.6,26.9,22.8,95,93,75,30.22,29.70,3,0,7,0.01
2013-3-20,36.0,28.2,24.0,23.8,21.8,19.1,95,78,57,29.75,29.66,8,1,18,0.06
2013-3-21,39.2,28.5,17.0,22.2,17.0,12.2,89,65,35,29.76,29.58,5,1,7,0.19
2013-3-22,37.4,30.1,20.1,25.7,19.8,16.0,86,66,45,29.70,29.61,7,2,12,0.07
2013-3-23,29.3,26.4,23.1,21.9,20.0,18.3,83,77,70,29.70,29.65,6,2,12,0.00
2013-3-25,41.6,36.5,23.8,30.6,28.4,21.0,89,73,59,29.73,29.54,4,1,8,0.02
2013-3-26,45.8,37.6,31.6,30.9,26.0,19.6,93,66,36,29.77,29.57,7,1,12,0.01
2013-3-27,47.8,37.5,26.0,32.9,26.4,22.0,89,66,41,29.89,29.75,8,2,14,0.00
2013-3-28,46.6,39.3,34.4,35.3,32.3,29.9,92,77,53,30.01,29.88,6,1,12,0.00
2013-3-29,49.8,41.3,32.5,35.9,32.8,29.7,91,73,50,30.04,29.97,6,1,12,0.00
2013-3-30,51.7,39.7,29.8,31.4,25.3,16.7,93,62,26,30.09,30.00,6,1,12,0.00
2013-3-31,55.0,38.9,24.0,37.7,26.5,20.9,96,66,28,30.11,29.76,5,0,12,0.13
2013-4-1,53.9,39.8,31.1,43.4,33.1,13.8,97,79,40,29.76,29.47,9,2,20,0.37
2013-4-2,36.0,30.7,25.9,23.5,14.9,11.0,66,52,41,29.86,29.74,10,4,17,0.00
2013-4-3,41.7,33.0,26.3,19.2,12.7,7.0,67,44,24,30.12,29.86,12,4,18,0.00
2013-4-4,53.1,38.0,28.3,27.2,18.0,10.2,81,47,19,30.26,29.96,6,1,12,0.00
2013-4-5,54.4,41.7,32.7,28.9,25.6,19.9,81,56,28,29.96,29.66,8,2,14,0.00
2013-4-6,41.7,32.7,25.5,22.4,11.3,3.8,64,43,21,30.31,29.88,10,3,18,0.00
2013-4-7,55.2,38.1,22.1,35.0,23.6,15.9,86,59,28,30.31,29.92,6,1,12,0.00
2013-4-8,59.4,45.6,33.8,38.2,33.8,29.5,95,67,33,30.07,29.91,8,1,14,0.00
2013-4-9,60.3,47.0,38.9,50.1,41.3,33.3,97,82,51,30.06,29.86,8,1,15,0.38
2013-4-10,56.0,48.1,41.8,48.9,45.0,39.9,98,89,70,29.98,29.83,3,0,6,0.43
2013-4-11,49.7,49.7,49.7,47.5,47.5,47.5,92,92,92,29.87,29.87,0,0,0,0.00
2013-4-17,44.4,41.0,38.6,33.4,31.9,30.9,75,70,64,30.33,30.30,2,0,15,0.00
2013-4-18,62.4,47.6,29.6,38.6,31.9,27.6,93,59,34,30.43,30.10,6,1,12,0.00
2013-4-19,72.2,61.6,50.0,62.0,54.0,38.0,94,77,59,30.10,29.55,8,1,14,0.21
2013-4-20,62.3,47.0,37.9,60.5,37.3,21.5,95,71,40,30.21,29.57,8,3,16,0.22
2013-4-21,51.2,39.8,30.8,24.4,19.5,14.5,72,46,24,30.67,30.20,8,2,14,0.00
2013-4-22,55.2,39.6,27.1,29.6,24.7,17.3,87,60,26,30.75,30.60,5,1,9,0.00
2013-4-23,39.9,36.1,29.5,38.2,33.6,27.3,96,91,82,30.60,30.17,3,0,5,0.01
2013-4-24,77.0,56.7,39.2,50.3,42.9,32.3,97,66,21,30.16,29.71,5,1,10,0.00
2013-4-25,60.1,52.1,37.5,50.5,33.3,21.8,79,51,26,30.27,29.71,9,3,15,0.00
2013-4-26,58.6,43.4,29.5,36.6,29.9,26.9,90,63,34,30.40,30.27,5,1,7,0.00
2013-5-1,74.6,60.7,49.4,39.2,36.6,28.0,66,43,19,30.43,30.37,3,0,4,0.00
2013-5-2,83.8,57.2,39.7,46.4,37.6,26.4,88,54,20,30.49,30.28,5,0,11,0.00
2013-5-3,69.3,52.4,35.0,45.7,39.4,32.4,91,64,36,30.52,30.35,4,1,10,0.00
2013-5-4,74.1,54.3,38.2,47.6,39.6,31.3,97,64,22,30.36,30.21,5,0,8,0.00
2013-5-5,72.1,51.9,32.6,41.5,35.7,30.5,94,60,23,30.32,30.17,4,0,8,0.00
2013-5-6,77.9,55.0,33.0,45.3,37.2,29.0,96,60,18,30.25,30.08,4,0,7,0.00
2013-5-7,83.7,61.7,40.1,54.1,43.5,34.9,95,61,19,30.14,30.02,4,0,6,0.00
2013-5-11,66.0,61.3,56.8,64.0,60.2,55.9,98,96,92,29.67,29.64,2,0,6,0.23
2013-5-12,67.1,56.4,47.0,56.1,45.8,25.3,98,71,35,29.76,29.55,7,1,13,0.00
2013-5-13,52.2,45.1,39.9,35.2,30.4,26.6,83,57,39,30.03,29.76,6,2,10,0.00
2013-5-14,57.4,45.3,35.5,36.1,32.1,26.5,90,64,33,30.06,29.96,6,1,12,0.00
2013-5-15,66.2,47.0,30.5,50.1,39.1,28.8,97,79,30,30.04,29.63,3,0,9,0.13
2013-5-16,77.5,59.8,40.4,52.3,42.4,34.6,98,61,24,29.81,29.58,8,1,16,0.00
2013-5-17,67.6,55.0,45.4,43.6,40.2,34.7,86,60,33,30.20,29.82,5,1,9,0.00
2013-5-18,74.5,56.2,38.7,49.2,41.4,32.0,94,64,21,30.29,30.18,4,0,5,0.00
2013-5-19,68.2,53.4,47.0,56.4,50.1,44.5,97,89,62,30.32,30.17,3,0,6,0.25
2013-5-20,75.8,63.0,53.8,66.8,59.0,53.1,99,88,63,30.16,29.91,3,0,6,0.02
2013-5-21,53.4,51.8,51.0,50.2,49.7,49.3,96,93,87,30.05,29.95,3,1,5,0.54
2013-5-22,54.4,53.5,52.8,53.6,52.9,51.9,98,98,97,29.94,29.90,1,0,2,2.11
2013-5-23,63.8,60.8,52.4,63.4,60.3,51.9,99,98,97,29.90,29.73,1,0,4,0.30
2013-5-24,65.7,57.7,45.9,65.4,55.7,44.3,99,93,80,29.86,29.61,5,1,13,0.25
2013-5-25,46.2,43.5,35.9,45.3,42.2,34.6,98,95,90,29.84,29.75,6,1,14,0.71
2013-5-26,53.4,44.4,36.7,43.0,39.4,35.9,97,84,61,30.07,29.71,7,2,14,0.15
2013-5-27,68.4,51.6,33.6,46.7,38.8,32.6,98,68,30,30.18,30.06,6,1,10,0.00
2013-5-28,73.2,54.9,37.7,53.6,44.1,36.4,96,71,33,30.24,30.11,4,0,6,0.00
2013-5-29,58.4,54.3,49.7,57.7,53.1,46.0,98,96,85,30.16,29.98,1,0,4,0.30
2013-5-30,84.7,67.6,52.9,70.6,62.0,52.3,100,85,48,30.05,29.97,4,0,8,0.00
2013-5-31,90.7,72.8,59.8,71.7,64.5,58.8,99,78,40,30.06,29.89,3,0,7,0.00
2013-6-1,90.8,74.7,62.2,72.4,66.1,61.0,96,77,42,29.92,29.78,4,0,7,0.01
2013-6-2,90.0,73.5,65.6,73.0,67.6,64.2,98,84,52,29.81,29.62,4,0,9,0.80
2013-6-3,78.0,66.4,55.2,68.6,60.4,48.6,99,83,49,29.80,29.71,4,0,8,0.01
2013-6-4,67.2,57.8,46.8,48.9,45.1,41.2,84,64,45,30.08,29.80,6,1,10,0.01
2013-6-5,74.9,59.4,45.1,52.3,45.6,35.9,95,65,27,30.17,30.05,2,0,8,0.00
2013-6-6,73.7,60.0,48.3,58.3,50.8,44.4,91,73,47,30.18,30.06,2,0,7,0.01
2013-6-7,56.1,52.4,50.3,53.6,51.4,48.9,98,96,91,30.09,29.87,2,0,6,1.13
2013-6-8,71.2,59.3,50.5,62.4,56.3,50.0,99,90,70,29.99,29.68,4,1,10,0.74
2013-6-9,75.2,63.5,53.2,60.3,55.6,52.1,98,78,47,30.15,29.99,4,1,6,0.00
2013-6-10,69.6,59.8,50.9,62.0,56.7,49.5,97,90,70,30.18,30.00,2,0,4,0.20
2013-6-11,57.9,55.8,53.3,56.8,55.0,52.7,98,97,94,30.00,29.57,3,0,5,1.61
2013-6-12,66.4,58.7,54.2,57.5,54.7,52.9,99,88,66,29.81,29.55,6,1,10,0.06
2013-6-13,63.5,56.0,49.3,58.6,54.0,48.2,98,93,78,29.80,29.69,2,0,5,0.23
2013-6-14,73.3,60.1,51.5,63.1,55.0,49.6,99,85,49,29.74,29.67,3,0,5,0.04
2013-6-15,66.2,59.7,54.4,52.6,51.5,50.4,88,75,58,29.91,29.85,1,0,2,0.00
2013-6-16,72.9,60.1,48.4,61.6,55.4,46.8,96,85,51,29.91,29.68,3,0,5,0.00
2013-6-17,79.7,64.4,54.0,65.2,59.3,52.6,98,85,49,29.88,29.74,8,0,12,0.36
2013-6-18,61.1,57.4,53.8,60.5,56.7,53.2,99,98,95,29.97,29.86,2,0,4,0.08
2013-6-19,73.7,60.1,48.8,55.9,50.6,43.4,99,75,35,30.14,29.91,2,0,4,0.00
2013-6-20,78.3,60.7,45.4,59.0,50.2,44.0,96,72,33,30.24,30.14,3,0,5,0.00
2013-6-21,82.3,65.4,50.3,61.4,54.9,47.6,95,72,36,30.22,30.16,2,0,4,0.00
2013-6-22,83.2,67.7,53.9,69.2,61.5,52.2,95,82,51,30.20,30.05,4,0,7,0.00
2013-6-23,72.8,72.8,72.8,65.5,65.5,65.5,78,78,78,30.06,30.06,0,0,0,0.00
2013-6-24,72.8,72.8,72.8,65.5,65.5,65.5,78,78,78,30.06,30.06,0,0,0,0.00
2013-6-25,72.8,72.8,72.8,65.5,65.5,65.5,78,78,78,30.06,30.06,0,0,0,0.00
2013-6-26,72.8,72.8,72.8,65.5,65.5,65.5,78,78,78,30.06,30.06,0,0,0,0.00
2013-6-27,72.8,72.8,72.8,65.5,65.5,65.5,78,78,78,30.06,30.06,0,0,0,0.00
2013-6-28,72.8,72.8,72.8,65.5,65.5,65.5,78,78,78,30.06,30.06,0,0,0,0.00
2013-6-29,72.8,72.8,72.8,65.5,65.5,65.5,78,78,78,30.06,30.06,0,0,0,0.00
2013-6-30,72.8,72.8,72.8,65.5,65.5,65.5,78,78,78,30.06,30.06,0,0,0,0.00
2013-7-1,72.8,72.3,69.6,69.9,66.2,65.5,99,82,78,30.06,30.00,0,0,0,0.00
2013-7-2,74.8,69.2,63.4,74.5,68.7,62.8,99,98,92,30.15,30.01,2,0,5,0.41
2013-7-4,86.2,77.0,72.2,77.9,74.6,71.6,98,93,74,30.08,30.02,1,0,6,0.06
2013-7-5,88.5,77.2,68.1,78.3,73.2,67.5,100,88,65,30.11,29.98,3,0,6,0.00
2013-7-6,86.2,76.5,69.1,73.9,70.0,66.3,96,82,56,30.03,29.94,4,0,12,0.00
2013-7-7,87.1,73.6,64.8,76.7,69.7,63.6,98,88,60,29.99,29.86,2,0,4,0.22
2013-7-8,79.4,71.8,64.6,76.5,70.8,64.0,99,97,84,30.05,29.88,0,0,1,1.41
2013-7-9,73.3,67.9,64.5,70.3,66.8,63.9,99,96,89,30.08,30.02,1,0,2,0.00
2013-7-10,77.7,69.5,65.2,74.2,68.7,64.6,99,97,87,30.04,29.75,2,0,5,0.21
2013-7-11,74.2,71.3,66.9,74.0,71.1,66.6,100,99,98,29.80,29.72,1,0,2,0.00
2013-7-12,74.1,74.1,74.1,73.8,73.8,73.8,99,99,99,29.80,29.80,0,0,0,0.00
2013-7-13,74.1,74.1,74.1,73.8,73.8,73.8,99,99,99,29.80,29.80,0,0,0,0.00
2013-7-14,78.5,74.0,70.0,73.8,73.5,68.5,99,98,83,30.20,29.80,0,0,1,0.00
2013-7-15,89.4,76.1,66.7,76.1,69.5,65.8,98,82,51,30.18,30.07,3,0,7,0.00
2013-7-16,88.7,76.6,66.3,75.2,68.9,64.5,95,79,52,30.14,30.09,4,0,6,0.00
2013-7-17,90.8,76.6,66.7,77.6,70.6,65.2,96,83,53,30.15,29.92,2,0,4,0.00
2013-7-18,91.7,76.9,70.4,76.8,72.0,69.5,98,86,56,29.98,29.89,3,0,5,0.39
2013-7-19,89.7,76.9,67.7,79.3,73.2,67.1,99,89,62,29.91,29.64,4,0,10,0.01
2013-7-20,84.8,75.9,69.8,73.9,69.2,65.6,95,81,60,29.72,29.60,5,0,10,0.03
2013-7-25,71.9,65.4,57.6,62.4,58.9,51.1,94,80,61,30.09,30.05,3,0,4,0.00
2013-7-26,72.0,64.0,60.3,66.5,62.0,59.4,98,93,78,30.07,29.92,4,0,7,0.14
2013-7-27,82.1,67.5,56.7,69.3,62.0,55.6,98,84,49,30.02,29.94,1,0,4,0.00
2013-7-28,80.4,67.3,57.3,71.8,64.2,56.4,99,91,70,30.00,29.93,2,0,5,0.06
2013-7-29,79.5,69.3,63.9,73.6,67.1,61.3,99,93,76,30.03,29.91,1,0,4,0.01
2013-7-30,77.1,66.7,58.2,64.1,59.2,55.9,94,78,50,30.08,30.01,2,0,4,0.00
2013-7-31,80.3,66.5,55.7,65.9,60.3,54.6,97,82,44,30.12,30.00,2,0,4,0.00
2013-8-1,76.3,64.6,55.1,67.6,61.9,54.2,98,92,67,30.02,29.83,3,0,7,0.36
2013-8-2,79.4,66.9,60.7,68.6,63.1,56.0,99,89,47,29.83,29.75,1,0,6,0.04
2013-8-3,77.3,64.9,55.9,63.5,58.5,54.8,98,82,51,29.83,29.73,5,0,7,0.00
2013-8-4,73.5,63.1,54.1,61.8,56.2,52.1,97,80,56,29.89,29.77,4,0,7,0.00
2013-8-5,72.9,61.1,51.8,52.8,47.9,36.0,95,66,27,30.04,29.87,4,1,9,0.00
2013-8-6,76.0,60.3,47.4,62.8,54.0,45.8,95,81,52,30.13,30.04,2,0,4,0.00
2013-8-7,78.5,63.2,50.4,65.3,57.4,49.3,98,83,53,30.16,30.05,3,0,6,0.00
2013-8-8,62.5,61.9,61.2,59.8,59.3,58.9,93,91,90,30.07,30.03,0,0,1,0.00
2013-8-13,66.6,65.6,64.2,66.0,65.0,63.6,98,98,98,29.69,29.66,0,0,9,0.73
2013-8-14,70.0,62.2,54.0,63.5,55.6,50.7,99,81,57,29.93,29.64,6,1,13,0.00
2013-8-15,73.5,59.0,47.2,60.0,52.6,46.1,98,81,50,30.09,29.93,3,0,6,0.00
2013-8-16,76.2,60.7,48.6,63.1,55.1,47.3,97,83,50,30.17,30.08,3,0,5,0.00
2013-8-17,76.7,63.3,52.6,63.9,57.3,51.5,98,83,50,30.26,30.17,2,0,4,0.00
2013-8-18,73.6,62.9,54.0,67.2,60.0,52.9,98,90,70,30.26,30.05,1,0,4,0.00
2013-8-19,79.0,65.7,54.9,66.3,60.3,53.8,98,84,53,30.06,29.91,3,0,6,0.00
2013-8-20,82.3,67.5,57.9,67.8,62.2,56.4,98,84,53,30.07,29.96,2,0,5,0.00
2013-8-21,83.8,68.8,58.8,70.0,63.6,57.6,97,85,55,30.12,29.99,1,0,4,0.01
2013-8-22,81.6,69.7,59.6,71.4,65.1,58.6,98,86,61,30.00,29.77,2,0,4,0.00
2013-8-23,77.4,67.7,58.9,66.0,58.2,51.2,95,74,43,30.13,29.79,3,0,7,0.00
2013-8-24,71.1,56.1,47.7,56.5,50.5,46.3,96,83,51,30.30,30.13,1,0,4,0.00
2013-8-28,77.6,68.0,64.3,73.1,66.7,63.3,98,96,85,29.98,29.82,3,0,8,0.19
2013-8-29,65.8,63.6,60.7,65.3,62.8,59.8,99,97,94,30.06,29.93,2,0,5,0.00
2013-8-30,77.7,66.7,59.0,71.6,64.7,58.4,99,94,74,30.00,29.77,1,0,2,0.00
2013-8-31,69.7,66.8,65.3,69.1,66.2,64.7,99,98,97,29.80,29.75,0,0,0,0.02
2013-9-1,71.4,69.9,69.5,70.5,69.3,68.9,98,98,97,29.84,29.78,0,0,0,0.14
2013-9-2,72.3,70.0,68.0,71.8,69.5,67.5,99,98,97,29.83,29.68,2,0,4,0.63
2013-9-3,69.9,65.8,57.9,69.0,64.9,57.1,99,97,85,29.78,29.67,1,0,2,0.02
2013-9-4,76.1,63.8,53.9,63.0,57.6,53.3,99,83,49,29.88,29.77,4,0,6,0.00
2013-9-5,67.8,58.5,46.1,57.9,50.3,39.4,97,77,37,30.15,29.83,4,0,8,0.00
2013-9-6,66.8,51.7,40.0,53.0,45.1,38.7,97,81,45,30.24,30.06,4,0,7,0.00
2013-9-7,71.0,56.9,45.6,59.9,52.1,44.3,96,85,55,30.06,29.81,2,0,4,0.00
2013-9-8,65.3,57.8,45.4,59.9,49.3,41.6,93,75,49,30.08,29.72,7,1,13,0.00
2013-9-9,65.8,52.0,39.4,55.8,46.6,37.8,96,83,52,30.22,30.08,2,0,5,0.00
2013-9-10,68.6,58.6,48.5,68.0,57.8,47.2,99,97,95,30.11,29.99,0,0,1,0.06
2013-9-11,82.3,71.4,62.0,77.3,69.6,61.4,100,94,69,30.04,29.88,6,0,12,0.12
2013-9-12,74.7,67.9,65.0,74.4,67.4,64.4,99,98,98,29.89,29.63,3,0,5,0.95
2013-9-13,70.3,63.9,56.7,65.7,61.4,52.6,99,92,80,29.76,29.57,5,1,12,0.02
2013-9-14,60.9,56.2,49.2,54.5,52.2,48.1,97,87,74,30.03,29.75,5,0,8,0.00
2013-9-15,66.3,54.0,42.7,58.2,50.7,41.9,99,89,54,30.13,30.01,2,0,4,0.00
2013-9-16,63.1,54.2,43.7,55.8,49.4,36.6,98,85,62,30.27,29.98,4,1,9,0.02
2013-9-17,61.6,47.5,36.1,50.9,41.9,34.6,96,82,56,30.42,30.27,2,0,4,0.00
2013-9-18,66.6,51.2,39.8,54.7,46.8,38.8,98,86,55,30.32,30.11,2,0,4,0.00
2013-9-19,69.6,56.4,44.9,60.6,52.4,43.8,98,87,62,30.13,30.01,2,0,4,0.00
2013-9-20,71.1,57.8,46.8,62.4,54.5,45.7,99,90,64,30.09,29.97,1,0,4,0.00
2013-9-21,69.9,59.2,48.9,63.5,56.6,48.1,99,91,72,29.99,29.66,4,0,10,0.00
2013-9-22,64.3,59.4,49.1,63.4,55.1,43.3,98,86,64,29.83,29.56,3,1,9,0.73
2013-9-23,55.1,48.3,43.6,44.8,41.5,38.6,91,78,63,29.99,29.82,6,1,12,0.00
2013-9-24,61.4,52.0,44.5,46.5,42.9,39.8,90,72,49,29.98,29.82,6,2,10,0.00
2013-9-25,64.3,54.1,43.4,54.3,48.3,41.8,97,82,63,29.98,29.87,4,0,8,0.00
2013-9-26,63.6,54.1,45.2,55.6,49.1,43.6,96,84,60,30.13,29.98,1,0,4,0.00
2013-9-27,64.3,56.1,51.6,56.6,52.2,49.7,95,87,67,30.24,30.13,2,0,4,0.00
2013-10-5,58.2,57.7,57.4,55.5,55.0,54.5,93,91,88,30.10,30.08,0,0,0,0.00
2013-10-6,57.5,51.3,47.9,55.6,50.2,46.8,99,96,89,30.24,30.10,2,0,4,0.24
2013-10-7,66.4,56.1,50.7,66.1,55.5,50.3,99,98,85,30.14,29.70,3,0,6,0.14
2013-10-8,56.9,50.9,38.7,50.6,43.4,37.1,98,78,55,30.39,29.88,4,1,10,0.00
2013-10-9,57.0,43.6,32.5,48.1,39.9,31.5,98,88,57,30.49,30.37,2,0,5,0.00
2013-10-10,59.6,46.7,34.8,53.3,44.3,34.0,99,92,69,30.38,30.18,1,0,2,0.00
2013-10-11,65.0,51.9,42.9,56.4,48.1,42.1,98,88,60,30.18,30.11,1,0,4,0.00
2013-10-12,54.6,47.8,40.0,53.1,46.9,39.2,98,97,93,30.40,30.17,1,0,4,0.01
2013-10-13,58.2,49.4,41.7,50.8,46.6,41.2,99,90,72,30.45,30.37,3,0,4,0.00
2013-10-14,63.8,50.4,38.2,57.1,47.6,37.3,99,91,72,30.38,30.20,2,0,4,0.00
2013-10-15,63.0,56.7,51.7,56.8,53.5,50.3,97,89,77,30.25,30.16,2,0,5,0.00
2013-10-16,60.0,54.2,47.9,52.5,50.8,46.5,96,88,73,30.16,29.88,3,0,5,0.00
2013-10-17,68.3,54.6,46.8,56.1,48.9,45.9,98,83,48,29.88,29.68,4,0,10,0.01
2013-10-18,61.1,54.2,50.6,54.7,51.0,47.3,98,90,63,29.73,29.57,5,1,10,0.15
2013-10-28,34.9,31.3,28.9,27.1,24.8,23.4,81,77,69,30.35,30.31,2,0,4,0.00
2013-10-29,43.7,31.7,23.5,26.7,21.5,16.2,90,68,33,30.45,30.34,4,0,9,0.00
2013-10-30,46.8,35.1,27.2,36.1,29.2,20.3,94,79,63,30.35,30.18,5,0,10,0.00
2013-10-31,57.2,38.0,28.7,56.9,36.8,27.4,99,95,87,30.23,29.72,2,0,5,0.15
2013-11-1,66.0,59.0,52.4,62.7,56.3,46.0,99,91,78,29.72,29.34,4,1,15,0.18
2013-11-2,60.6,48.5,38.2,49.1,44.1,37.2,98,86,54,29.77,29.57,6,0,12,0.02
2013-11-3,41.8,35.9,29.3,38.4,24.0,12.5,90,64,35,30.43,29.77,7,2,15,0.00
2013-11-4,38.6,29.4,23.5,24.0,19.7,12.9,86,68,37,30.71,30.43,3,0,4,0.00
2013-11-5,45.5,31.3,22.1,33.4,26.2,19.5,92,82,57,30.71,30.48,3,0,6,0.00
2013-11-6,56.9,43.9,31.2,46.9,38.6,29.3,95,82,64,30.49,29.96,4,0,14,0.00
2013-11-7,57.1,50.7,37.7,55.3,46.1,34.8,96,84,77,29.97,29.65,6,1,12,0.00
2013-11-8,43.1,34.3,26.5,35.4,29.1,24.5,93,82,59,29.92,29.79,6,1,13,0.00
2013-11-16,55.2,42.4,30.0,33.5,30.2,25.8,89,65,34,30.31,30.23,1,0,4,0.00
2013-11-17,42.1,35.3,27.7,41.6,33.9,25.5,98,95,88,30.31,29.84,1,0,2,0.07
2013-11-18,58.3,49.1,41.8,54.0,43.8,32.8,99,83,53,29.84,29.48,6,1,13,0.08
2013-11-19,44.6,35.3,29.8,34.2,22.1,16.2,71,58,51,30.30,29.61,10,4,17,0.00
2013-11-20,36.4,29.6,24.5,20.4,17.2,12.9,74,60,38,30.62,30.29,7,1,10,0.00
2013-11-21,42.4,29.4,18.3,25.3,18.8,10.4,89,67,31,30.63,30.35,3,0,4,0.00
2013-11-22,38.0,34.9,30.9,37.2,33.2,24.5,98,94,77,30.34,29.78,2,0,4,0.19
2013-11-23,41.4,34.7,26.2,40.6,25.7,14.1,98,71,49,29.92,29.74,10,2,17,0.00
2013-11-24,26.1,20.3,16.4,21.0,5.9,-1.9,88,54,40,30.18,29.76,13,5,27,0.00
2013-11-25,28.7,20.3,12.9,18.7,5.5,-2.7,73,53,32,30.37,30.17,7,2,15,0.00
2013-11-26,36.2,31.0,26.9,31.0,24.7,16.5,96,78,62,30.29,30.06,3,0,5,0.01
2013-11-27,43.8,36.2,32.0,43.3,35.0,29.8,98,95,83,30.06,29.25,8,1,15,0.31
2013-11-28,34.6,25.7,15.2,30.1,15.6,8.0,87,66,45,30.41,29.41,9,3,14,0.00
2013-11-29,25.8,17.5,10.8,13.5,9.1,3.5,90,72,38,30.76,30.41,7,1,12,0.01
2013-11-30,27.6,18.1,5.8,19.7,11.6,3.0,91,77,55,30.82,30.42,2,0,4,0.00
2013-12-1,36.1,31.0,25.2,31.5,26.5,19.1,93,83,76,30.42,30.03,2,0,4,0.00
2013-12-2,40.7,35.3,32.9,36.3,33.4,31.3,96,93,84,30.03,29.90,2,0,3,0.00
2013-12-3,45.4,34.9,28.7,37.2,31.9,27.1,96,89,66,29.93,29.85,4,0,6,0.00
2013-12-4,39.5,32.5,27.6,29.1,26.7,24.0,96,80,63,30.18,29.93,6,1,12,0.00
2013-12-5,34.1,32.1,26.6,33.3,30.3,24.3,97,93,87,30.20,29.89,2,0,2,0.01
2013-12-6,43.3,38.4,32.9,42.9,36.1,29.7,99,92,71,30.13,29.84,4,0,9,0.08
2013-12-7,33.2,30.9,26.1,31.2,25.0,18.1,96,79,59,30.42,30.06,6,1,10,0.00
2013-12-8,28.1,25.6,20.1,21.5,17.2,13.7,88,71,57,30.57,30.42,4,0,6,0.00
2013-12-9,28.7,26.3,23.2,27.6,23.6,16.4,96,89,69,30.49,29.86,2,0,4,0.00
2013-12-10,32.9,27.7,19.4,29.3,24.6,13.9,97,88,68,29.94,29.77,4,0,8,0.00
2013-12-11,28.5,21.3,12.6,20.7,15.5,10.2,93,79,58,30.14,29.94,6,1,15,0.00
2013-12-12,20.8,14.7,5.1,17.0,7.2,-0.2,91,73,44,30.25,30.00,6,1,12,0.00
2013-12-13,23.5,13.5,3.9,18.8,8.4,-1.9,90,80,65,30.42,29.92,4,1,9,0.00
2013-12-14,12.6,8.0,2.8,8.9,-0.3,-5.6,89,69,46,30.61,30.23,4,1,7,0.00
2013-12-15,26.9,19.3,11.5,24.3,16.7,8.9,93,90,85,30.25,29.47,4,1,8,0.00
2013-12-16,23.2,17.3,6.5,15.6,8.5,-0.8,92,70,45,30.20,29.69,9,2,15,0.00
2013-12-17,10.7,3.2,-5.5,7.2,-2.1,-9.6,88,78,62,30.27,30.13,3,0,5,0.00
2013-12-18,19.7,17.2,15.8,17.9,15.1,13.5,94,92,90,30.02,30.00,1,0,2,0.00
2013-12-19,35.2,27.2,19.6,26.8,23.4,17.3,94,86,65,30.07,29.91,4,0,8,0.00
2013-12-20,37.5,31.6,26.6,32.6,29.3,24.3,96,91,79,30.09,29.89,1,0,2,0.02
2013-12-21,42.5,36.1,33.2,39.3,35.0,32.4,98,96,88,29.91,29.82,0,0,1,0.36
2013-12-22,38.1,34.2,32.1,37.5,33.7,31.6,98,98,97,30.02,29.76,5,0,9,0.14
2013-12-23,35.1,32.8,31.8,34.7,32.3,31.3,99,98,95,30.10,29.96,4,0,7,0.30
2013-12-24,33.3,27.7,19.0,31.8,19.7,12.2,94,72,54,30.20,30.04,5,2,9,0.07
2013-12-25,18.9,12.5,6.9,12.3,4.5,-1.5,88,70,54,30.52,30.19,8,2,14,0.00
2013-12-26,23.1,16.8,11.0,20.4,13.9,8.1,94,88,81,30.48,30.10,2,0,4,0.00
2013-12-27,31.0,20.1,8.6,24.1,16.7,5.8,95,87,65,30.24,30.16,6,0,12,0.00
2013-12-28,42.4,26.6,11.1,33.0,23.1,8.7,95,87,65,30.18,29.95,6,0,10,0.10
2013-12-29,33.7,29.2,26.2,32.0,28.1,25.0,97,95,91,30.00,29.57,2,0,4,0.07
2013-12-30,35.4,26.7,8.4,33.3,22.1,3.1,98,83,62,30.17,29.55,8,2,17,0.01
2013-12-31,17.7,10.0,2.3,14.2,4.0,-3.3,92,77,58,30.17,30.02,2,0,6,0.00
2014-1-1,21.0,13.4,6.9,12.1,8.4,3.9,91,81,63,30.38,30.13,5,1,11,0.00
2014-1-2,11.8,7.6,0.4,8.9,4.6,-3.0,91,87,84,30.38,29.94,3,0,5,0.00